createdAt,value
2023-01-30T00:01:45.999Z,5.30
2023-01-30T00:04:17.829Z,5.30
2023-01-30T00:07:03.235Z,5.40
2023-01-30T00:09:31.348Z,6.30
2023-01-30T00:14:33.428Z,4.30
2023-01-30T00:17:02.799Z,5.80
2023-01-30T00:19:30.088Z,6.30
2023-01-30T00:22:00.144Z,5.40
2023-01-30T00:24:30.030Z,5.40
2023-01-30T00:26:57.084Z,5.90
2023-01-30T00:29:24.342Z,5.40
2023-01-30T00:31:54.850Z,6.20
2023-01-30T00:34:24.461Z,5.40
2023-01-30T00:37:07.155Z,5.40
2023-01-30T00:39:35.720Z,5.90
2023-01-30T00:50:17.456Z,4.30
2023-01-30T00:52:50.938Z,4.40
2023-01-30T00:55:18.340Z,6.50
2023-01-30T00:57:47.689Z,5.30
2023-01-30T01:00:17.661Z,6.10
2023-01-30T01:05:19.345Z,5.60
2023-01-30T01:07:51.069Z,6.30
2023-01-30T01:10:19.463Z,6.20
2023-01-30T01:12:50.056Z,5.40
2023-01-30T01:22:50.371Z,5.40
2023-01-30T01:25:20.900Z,5.50
2023-01-30T01:27:49.573Z,5.60
2023-01-30T01:30:18.402Z,5.50
2023-01-30T01:32:45.849Z,3.90
2023-01-30T01:35:13.622Z,5.30
2023-01-30T01:37:41.357Z,5.60
2023-01-30T01:40:47.376Z,5.70
2023-01-30T01:43:56.609Z,5.70
2023-01-30T01:46:33.859Z,5.70
2023-01-30T01:49:56.206Z,5.70
2023-01-30T01:55:09.572Z,5.80
2023-01-30T01:57:47.075Z,5.80
2023-01-30T02:03:01.438Z,6.90
2023-01-30T02:05:35.999Z,5.90
2023-01-30T02:08:27.339Z,5.90
2023-01-30T02:11:13.567Z,3.90
2023-01-30T02:13:50.322Z,6.20
2023-01-30T02:16:24.633Z,5.70
2023-01-30T02:18:55.465Z,6.20
2023-01-30T02:21:56.395Z,10.90
2023-01-30T02:24:29.622Z,6.00
2023-01-30T02:27:43.579Z,6.00
2023-01-30T02:30:54.620Z,6.00
2023-01-30T02:33:34.107Z,6.10
2023-01-30T02:36:18.625Z,6.10
2023-01-30T02:39:19.922Z,6.10
2023-01-30T02:41:56.003Z,5.90
2023-01-30T02:44:28.779Z,5.50
2023-01-30T02:47:02.462Z,6.20
2023-01-30T02:49:38.286Z,6.30
2023-01-30T02:52:11.430Z,6.90
2023-01-30T02:54:45.851Z,6.40
2023-01-30T02:57:25.373Z,6.80
2023-01-30T03:00:03.199Z,6.10
2023-01-30T03:03:35.604Z,6.40
2023-01-30T03:06:24.392Z,6.00
2023-01-30T03:09:07.272Z,6.00
2023-01-30T03:12:01.877Z,6.00
2023-01-30T03:14:48.681Z,5.90
2023-01-30T03:17:47.297Z,5.90
2023-01-30T03:20:21.081Z,5.80
2023-01-30T03:22:50.115Z,5.70
2023-01-30T03:25:39.624Z,6.70
2023-01-30T03:28:08.207Z,5.70
2023-01-30T03:30:46.980Z,5.50
2023-01-30T03:33:19.155Z,5.60
2023-01-30T03:35:49.753Z,5.60
2023-01-30T03:38:20.662Z,5.20
2023-01-30T03:43:21.142Z,5.20
2023-01-30T03:45:48.261Z,5.30
2023-01-30T03:48:18.716Z,5.30
2023-01-30T03:50:48.193Z,5.80
2023-01-30T03:53:16.419Z,5.20
2023-01-30T03:55:47.066Z,5.30
2023-01-30T03:58:14.231Z,5.20
2023-01-30T04:00:44.201Z,5.30
2023-01-30T04:05:39.217Z,5.20
2023-01-30T04:10:44.740Z,5.00
2023-01-30T04:13:12.740Z,5.10
2023-01-30T04:15:40.122Z,1.00
2023-01-30T04:18:38.157Z,5.20
2023-01-30T04:21:19.096Z,3.20
2023-01-30T04:23:48.715Z,5.80
2023-01-30T04:26:18.567Z,5.00
2023-01-30T04:28:47.867Z,4.80
2023-01-30T04:33:44.967Z,4.90
2023-01-30T04:36:20.891Z,4.80
2023-01-30T04:38:50.644Z,4.90
2023-01-30T04:41:21.732Z,5.90
2023-01-30T04:43:49.251Z,5.90
2023-01-30T04:46:41.340Z,4.80
2023-01-30T04:49:10.437Z,4.30
2023-01-30T04:51:40.625Z,4.80
2023-01-30T04:54:07.961Z,5.80
2023-01-30T04:56:35.012Z,5.50
2023-01-30T04:59:02.896Z,5.90
2023-01-30T05:01:38.417Z,4.70
2023-01-30T05:04:16.380Z,4.70
2023-01-30T05:06:49.141Z,4.70
2023-01-30T05:09:16.526Z,4.60
2023-01-30T05:11:52.093Z,3.60
2023-01-30T05:14:21.909Z,4.70
2023-01-30T05:16:48.980Z,4.70
2023-01-30T05:19:19.236Z,4.70
2023-01-30T05:21:51.881Z,5.10
2023-01-30T05:24:20.691Z,4.60
2023-01-30T05:29:15.849Z,4.60
2023-01-30T05:34:12.321Z,4.50
2023-01-30T05:39:08.104Z,4.60
2023-01-30T05:44:04.089Z,4.60
2023-01-30T05:49:02.007Z,6.40
2023-01-30T05:51:29.155Z,4.60
2023-01-30T05:54:12.545Z,4.60
2023-01-30T05:56:42.264Z,4.60
2023-01-30T05:59:11.904Z,4.60
2023-01-30T06:01:40.401Z,5.20
2023-01-30T06:04:07.418Z,4.50
2023-01-30T06:06:52.044Z,6.20
2023-01-30T06:11:53.454Z,4.30
2023-01-30T06:14:20.653Z,3.90
2023-01-30T06:16:47.929Z,3.90
2023-01-30T06:19:15.172Z,4.20
2023-01-30T06:21:42.264Z,5.20
2023-01-30T06:24:09.380Z,4.40
2023-01-30T06:26:36.374Z,4.50
2023-01-30T06:29:03.376Z,4.60
2023-01-30T06:31:30.417Z,4.60
2023-01-30T06:33:57.432Z,4.70
2023-01-30T06:36:26.567Z,5.60
2023-01-30T06:38:53.969Z,5.60
2023-01-30T06:41:26.533Z,4.50
2023-01-30T06:43:53.801Z,4.50
2023-01-30T06:46:23.446Z,4.50
2023-01-30T06:48:54.973Z,4.50
2023-01-30T06:51:24.294Z,4.50
2023-01-30T06:53:58.545Z,4.60
2023-01-30T06:56:25.945Z,5.40
2023-01-30T07:01:21.232Z,4.60
2023-01-30T07:03:49.761Z,4.60
2023-01-30T07:06:16.885Z,4.60
2023-01-30T07:09:04.143Z,4.10
2023-01-30T07:11:38.114Z,4.70
2023-01-30T07:14:06.335Z,6.30
2023-01-30T07:16:34.141Z,6.10
2023-01-30T07:19:04.172Z,5.50
2023-01-30T07:21:31.142Z,5.00
2023-01-30T07:24:06.686Z,4.90
2023-01-30T07:26:33.706Z,5.10
2023-01-30T07:29:00.785Z,5.00
2023-01-30T07:31:30.397Z,6.10
2023-01-30T07:33:57.435Z,5.00
2023-01-30T07:36:24.547Z,5.10
2023-01-30T07:38:51.663Z,5.10
2023-01-30T07:41:22.962Z,5.20
2023-01-30T07:43:51.997Z,5.20
2023-01-30T07:46:19.027Z,5.30
2023-01-30T07:48:47.171Z,5.20
2023-01-30T07:51:16.907Z,5.50
2023-01-30T07:53:43.990Z,5.20
2023-01-30T07:56:14.164Z,5.20
2023-01-30T07:58:43.463Z,5.30
2023-01-30T08:01:19.249Z,6.30
2023-01-30T08:03:46.954Z,6.10
2023-01-30T08:06:16.400Z,5.60
2023-01-30T08:08:44.154Z,6.60
2023-01-30T08:11:15.088Z,5.60
2023-01-30T08:13:43.443Z,4.60
2023-01-30T08:16:14.134Z,5.70
2023-01-30T08:18:44.537Z,5.60
2023-01-30T08:21:11.899Z,5.40
2023-01-30T08:23:38.773Z,5.70
2023-01-30T08:26:11.067Z,5.50
2023-01-30T08:28:39.282Z,6.80
2023-01-30T08:31:12.671Z,6.10
2023-01-30T08:33:39.871Z,6.00
2023-01-30T08:36:52.298Z,5.40
2023-01-30T08:41:53.946Z,4.30
2023-01-30T08:44:21.123Z,4.20
2023-01-30T08:46:48.475Z,4.20
2023-01-30T08:54:11.269Z,4.00
2023-01-30T08:56:40.289Z,4.60
2023-01-30T08:59:07.972Z,3.00
2023-01-30T09:01:35.256Z,4.90
2023-01-30T09:04:05.099Z,4.00
2023-01-30T09:06:33.712Z,5.20
2023-01-30T09:09:03.929Z,4.50
2023-01-30T09:11:32.114Z,4.80
2023-01-30T09:13:59.380Z,3.60
2023-01-30T09:21:22.108Z,3.60
2023-01-30T09:26:16.784Z,3.60
2023-01-30T09:31:12.692Z,3.80
2023-01-30T09:33:39.955Z,4.20
2023-01-30T09:36:12.551Z,4.20
2023-01-30T09:38:39.594Z,4.40
2023-01-30T09:41:26.261Z,4.60
2023-01-30T09:44:30.962Z,4.80
2023-01-30T09:47:13.933Z,5.50
2023-01-30T09:52:17.212Z,4.90
2023-01-30T09:54:48.435Z,6.70
2023-01-30T09:57:24.846Z,5.30
2023-01-30T10:00:14.040Z,5.80
2023-01-30T10:03:06.199Z,6.00
2023-01-30T10:05:56.743Z,6.50
2023-01-30T10:08:51.374Z,6.80
2023-01-30T10:11:32.307Z,6.80
2023-01-30T10:14:28.366Z,7.30
2023-01-30T10:17:10.851Z,6.70
2023-01-30T10:19:58.847Z,4.20
2023-01-30T10:22:34.640Z,6.40
2023-01-30T10:25:30.488Z,6.20
2023-01-30T10:28:20.267Z,5.40
2023-01-30T10:30:50.898Z,5.60
2023-01-30T10:33:36.092Z,7.00
2023-01-30T10:36:15.482Z,4.90
2023-01-30T10:39:03.868Z,4.90
2023-01-30T10:41:54.875Z,5.00
2023-01-30T10:44:35.096Z,4.80
2023-01-30T10:47:47.279Z,4.70
2023-01-30T10:52:09.404Z,5.10
2023-01-30T10:55:31.531Z,4.50
2023-01-30T10:58:46.828Z,5.70
2023-01-30T11:01:34.688Z,5.70
2023-01-30T11:07:01.951Z,5.60
2023-01-30T11:10:00.993Z,6.10
2023-01-30T11:12:30.928Z,5.60
2023-01-30T11:15:11.495Z,5.50
2023-01-30T11:17:57.070Z,6.80
2023-01-30T11:24:01.257Z,5.60
2023-01-30T11:26:45.609Z,6.30
2023-01-30T11:29:32.711Z,6.20
2023-01-30T11:32:29.873Z,5.70
2023-01-30T11:38:46.794Z,5.10
2023-01-30T11:41:30.378Z,6.00
2023-01-30T11:44:33.498Z,6.30
2023-01-30T11:47:25.741Z,6.20
2023-01-30T11:50:05.184Z,6.10
2023-01-30T11:52:43.567Z,6.10
2023-01-30T11:55:21.726Z,6.00
2023-01-30T11:57:55.754Z,6.00
2023-01-30T12:00:38.165Z,6.00
2023-01-30T12:03:13.175Z,5.00
2023-01-30T12:10:27.948Z,8.80
2023-01-30T12:13:24.284Z,5.80
2023-01-30T12:16:46.234Z,7.30
2023-01-30T12:19:44.465Z,5.60
2023-01-30T12:23:08.229Z,5.60
2023-01-30T12:26:03.386Z,5.80
2023-01-30T12:28:58.407Z,7.90
2023-01-30T12:31:46.885Z,6.50
2023-01-30T12:34:16.340Z,7.20
2023-01-30T12:37:11.083Z,6.50
2023-01-30T12:40:23.539Z,6.50
2023-01-30T12:43:20.107Z,6.50
2023-01-30T12:46:09.512Z,6.30
2023-01-30T12:49:07.696Z,6.20
2023-01-30T12:52:25.289Z,6.20
2023-01-30T12:55:31.271Z,6.10
2023-01-30T12:58:16.679Z,5.90
2023-01-30T13:01:16.624Z,5.20
2023-01-30T13:04:56.716Z,6.40
2023-01-30T13:07:56.335Z,6.40
2023-01-30T13:11:01.785Z,6.40
2023-01-30T13:13:47.272Z,6.40
2023-01-30T13:16:36.319Z,6.50
2023-01-30T13:19:23.155Z,6.40
2023-01-30T13:22:17.501Z,7.20
2023-01-30T13:24:57.755Z,7.30
2023-01-30T13:27:27.278Z,7.20
2023-01-30T13:29:59.299Z,6.70
2023-01-30T13:32:58.063Z,7.90
2023-01-30T13:35:50.579Z,7.70
2023-01-30T13:38:24.727Z,6.50
2023-01-30T13:40:55.507Z,6.50
2023-01-30T13:43:26.581Z,6.50
2023-01-30T13:45:57.084Z,6.50
2023-01-30T13:48:43.925Z,6.40
2023-01-30T13:51:41.981Z,6.50
2023-01-30T13:54:27.693Z,6.80
2023-01-30T13:57:41.246Z,6.50
2023-01-30T14:00:26.941Z,6.50
2023-01-30T14:03:09.396Z,6.60
2023-01-30T14:09:43.231Z,6.90
2023-01-30T14:12:53.805Z,6.40
2023-01-30T14:15:44.568Z,6.30
2023-01-30T14:18:31.422Z,5.40
2023-01-30T14:21:25.088Z,6.70
2023-01-30T14:24:34.529Z,6.60
2023-01-30T14:27:42.494Z,6.20
2023-01-30T14:30:47.891Z,5.90
2023-01-30T14:33:23.860Z,7.40
2023-01-30T14:36:05.885Z,8.20
2023-01-30T14:38:38.979Z,6.20
2023-01-30T14:41:20.318Z,6.20
2023-01-30T14:46:24.641Z,6.20
2023-01-30T14:49:13.857Z,6.60
2023-01-30T14:51:52.338Z,6.40
2023-01-30T14:54:41.951Z,7.10
2023-01-30T14:57:33.961Z,6.10
2023-01-30T15:00:18.585Z,6.10
2023-01-30T15:02:56.809Z,6.00
2023-01-30T15:05:42.917Z,6.00
2023-01-30T15:08:22.663Z,5.60
2023-01-30T15:11:21.577Z,6.00
2023-01-30T15:14:07.509Z,4.60
2023-01-30T15:16:58.698Z,6.00
2023-01-30T15:19:51.896Z,6.00
2023-01-30T15:22:39.181Z,5.90
2023-01-30T15:25:20.825Z,4.30
2023-01-30T15:28:06.371Z,5.90
2023-01-30T15:31:14.429Z,5.80
2023-01-30T15:33:47.859Z,5.80
2023-01-30T15:36:28.012Z,5.30
2023-01-30T15:39:07.342Z,5.80
2023-01-30T15:41:41.148Z,4.60
2023-01-30T15:44:24.797Z,6.50
2023-01-30T15:47:22.982Z,5.70
2023-01-30T15:50:09.087Z,5.60
2023-01-30T15:52:49.398Z,5.50
2023-01-30T15:55:38.689Z,5.50
2023-01-30T15:58:23.097Z,5.50
2023-01-30T16:00:56.300Z,5.40
2023-01-30T16:03:32.708Z,5.40
2023-01-30T16:09:23.601Z,5.20
2023-01-30T16:12:12.636Z,5.30
2023-01-30T16:15:19.906Z,4.70
2023-01-30T16:24:26.974Z,5.20
2023-01-30T16:27:01.191Z,5.20
2023-01-30T16:29:32.490Z,5.30
2023-01-30T16:32:00.072Z,5.60
2023-01-30T16:34:38.291Z,4.10
2023-01-30T16:37:20.210Z,5.20
2023-01-30T16:40:04.236Z,5.20
2023-01-30T16:42:35.800Z,5.10
2023-01-30T16:45:44.465Z,5.20
2023-01-30T16:48:20.717Z,6.90
2023-01-30T16:50:49.514Z,5.30
2023-01-30T16:53:24.240Z,7.30
2023-01-30T16:56:02.229Z,5.20
2023-01-30T16:58:32.634Z,5.20
2023-01-30T17:01:01.825Z,5.10
2023-01-30T17:03:31.515Z,7.80
2023-01-30T17:05:59.590Z,5.00
2023-01-30T17:08:54.132Z,4.20
2023-01-30T17:11:39.748Z,5.00
2023-01-30T17:14:20.847Z,5.00
2023-01-30T17:17:08.678Z,3.70
2023-01-30T17:19:46.133Z,4.50
2023-01-30T17:22:24.432Z,4.70
2023-01-30T17:27:26.590Z,4.90
2023-01-30T17:29:55.588Z,6.20
2023-01-30T17:32:24.590Z,4.90
2023-01-30T17:34:51.556Z,5.10
2023-01-30T17:37:23.739Z,5.30
2023-01-30T17:42:29.213Z,4.40
2023-01-30T17:47:24.227Z,4.70
2023-01-30T17:49:51.235Z,4.20
2023-01-30T17:52:20.147Z,4.80
2023-01-30T17:54:47.125Z,4.90
2023-01-30T17:57:17.433Z,4.70
2023-01-30T17:59:44.480Z,4.90
2023-01-30T18:02:11.439Z,4.60
2023-01-30T18:04:40.767Z,6.10
2023-01-30T18:07:14.308Z,4.90
2023-01-30T18:09:47.568Z,2.50
2023-01-30T18:12:14.731Z,4.40
2023-01-30T18:14:44.333Z,6.40
2023-01-30T18:19:44.538Z,6.10
2023-01-30T18:22:11.621Z,5.60
2023-01-30T18:24:38.702Z,4.80
2023-01-30T18:29:33.350Z,4.60
2023-01-30T18:32:05.541Z,5.00
2023-01-30T18:37:30.291Z,4.60
2023-01-30T18:40:03.421Z,4.70
2023-01-30T18:47:57.639Z,4.00
2023-01-30T18:50:28.479Z,2.80
2023-01-30T18:52:55.639Z,4.50
2023-01-30T18:55:25.400Z,4.30
2023-01-30T19:00:27.645Z,4.40
2023-01-30T19:02:57.117Z,2.90
2023-01-30T19:05:24.156Z,4.10
2023-01-30T19:10:19.317Z,4.70
2023-01-30T19:13:07.599Z,4.00
2023-01-30T19:15:35.375Z,3.90
2023-01-30T19:28:06.695Z,4.00
2023-01-30T19:38:00.398Z,2.70
2023-01-30T19:44:51.283Z,3.80
2023-01-30T19:47:27.955Z,4.40
2023-01-30T19:52:22.876Z,4.30
2023-01-30T19:54:49.763Z,3.80
2023-01-30T19:57:16.789Z,2.80
2023-01-30T19:59:44.875Z,4.40
2023-01-30T20:22:08.171Z,3.70
2023-01-30T20:24:37.981Z,3.40
2023-01-30T20:27:05.300Z,3.50
2023-01-30T20:32:00.103Z,3.70
2023-01-30T20:34:27.272Z,3.70
2023-01-30T20:36:56.724Z,3.70
2023-01-30T20:39:24.019Z,3.60
2023-01-30T20:41:51.108Z,3.20
2023-01-30T20:44:21.461Z,3.60
2023-01-30T20:49:19.783Z,4.50
2023-01-30T20:51:50.103Z,3.50
2023-01-30T20:54:19.186Z,3.60
2023-01-30T20:56:49.128Z,3.30
2023-01-30T20:59:23.940Z,3.30
2023-01-30T21:01:52.131Z,3.40
2023-01-30T21:04:20.080Z,3.30
2023-01-30T21:06:47.688Z,4.60
2023-01-30T21:09:20.787Z,2.50
2023-01-30T21:11:49.501Z,3.40
2023-01-30T21:14:17.405Z,3.30
2023-01-30T21:19:16.108Z,3.40
2023-01-30T21:21:50.589Z,3.60
2023-01-30T21:24:20.190Z,3.90
2023-01-30T21:26:48.224Z,3.40
2023-01-30T21:29:16.943Z,3.30
2023-01-30T21:34:12.988Z,3.40
2023-01-30T21:36:43.441Z,3.30
2023-01-30T21:39:31.967Z,4.90
2023-01-30T21:42:17.692Z,5.70
2023-01-30T21:44:44.810Z,2.50
2023-01-30T21:49:44.026Z,3.30
2023-01-30T22:04:28.939Z,4.60
2023-01-30T22:21:47.428Z,5.00
2023-01-30T22:24:14.532Z,3.20
2023-01-30T22:29:09.666Z,3.00
2023-01-30T22:31:38.592Z,3.10
2023-01-30T22:36:34.942Z,3.00
2023-01-30T22:39:03.038Z,2.90
2023-01-30T22:41:34.634Z,2.90
2023-01-30T22:44:04.118Z,2.90
2023-01-30T22:46:34.058Z,2.80
2023-01-30T22:49:02.966Z,2.70
2023-01-30T22:51:32.877Z,2.90
2023-01-30T22:54:05.326Z,3.40
2023-01-30T22:56:39.593Z,2.50
2023-01-30T22:59:07.565Z,2.90
2023-01-30T23:01:38.309Z,2.90
2023-01-30T23:04:17.448Z,2.80
2023-01-30T23:06:45.418Z,2.80
2023-01-30T23:09:16.502Z,3.10
2023-01-30T23:12:06.717Z,2.70
2023-01-30T23:22:16.038Z,1.70
2023-01-30T23:27:10.589Z,2.30
2023-01-30T23:29:38.011Z,2.60
2023-01-30T23:34:33.023Z,1.40
2023-01-30T23:37:00.054Z,2.60
2023-01-30T23:39:27.067Z,2.60
2023-01-30T23:41:53.999Z,2.50
2023-01-30T23:44:21.111Z,2.90
2023-01-30T23:46:48.077Z,3.70
2023-01-30T23:49:15.245Z,2.10
2023-01-30T23:51:44.218Z,1.60
2023-01-30T23:54:12.652Z,2.60
2023-01-30T23:56:42.565Z,2.50
2023-01-30T23:59:10.917Z,2.80
